Time;durP1;ratioP1;P1;durP2;ratioP2;P2;SDS_P1;SDS_P2;PMS_P1;PMS_P2;Temp;Humidity;BMP_temperature;BMP_pressure;BME280_temperature;BME280_humidity;BME280_pressure;Samples;Min_cycle;Max_cycle;Signal;HPM_P1;HPM_P2
2023/06/01 00:00:44;;;;;;;11.10;6.35;;;;;;;15.20;66.22;94017.69;4949161;28;20046;-74
2023/06/01 00:03:09;;;;;;;11.52;6.55;;;;;;;15.06;66.81;94019.91;4949377;28;20035;-73
2023/06/01 00:05:34;;;;;;;9.02;5.93;;;;;;;15.18;66.91;94025.25;4947449;28;20348;-73
2023/06/01 00:08:00;;;;;;;7.13;5.68;;;;;;;15.23;66.45;94030.38;4949937;28;20075;-73
2023/06/01 00:10:25;;;;;;;10.10;6.55;;;;;;;15.17;66.39;94012.19;4944856;28;20031;-73
2023/06/01 00:12:51;;;;;;;11.85;5.43;;;;;;;15.11;65.61;94008.94;4948542;28;20054;-73
2023/06/01 00:15:16;;;;;;;6.28;5.65;;;;;;;15.23;65.81;94027.72;4947203;28;20081;-74
2023/06/01 00:17:41;;;;;;;10.52;7.10;;;;;;;15.20;65.36;94017.69;4947723;28;20396;-73
2023/06/01 00:20:08;;;;;;;7.68;5.68;;;;;;;15.21;65.75;94015.75;4945559;28;20113;-73
2023/06/01 00:22:38;;;;;;;6.85;4.93;;;;;;;15.24;65.31;94017.78;4949353;28;20062;-73
2023/06/01 00:25:05;;;;;;;9.10;6.30;;;;;;;15.22;64.90;94007.38;4941069;28;20034;-73
2023/06/01 00:27:31;;;;;;;7.00;6.03;;;;;;;15.13;64.76;93993.34;4949986;28;20042;-73
2023/06/01 00:29:56;;;;;;;12.50;6.05;;;;;;;15.25;64.91;94022.81;4948981;28;20604;-73
2023/06/01 00:32:22;;;;;;;7.90;6.25;;;;;;;15.13;65.40;94011.31;4946536;28;20035;-73
2023/06/01 00:34:47;;;;;;;7.03;5.97;;;;;;;15.16;65.97;94021.34;4945389;28;20394;-73
2023/06/01 00:37:12;;;;;;;11.52;5.32;;;;;;;15.19;65.18;94029.50;4955316;28;20045;-73
2023/06/01 00:39:38;;;;;;;9.23;6.55;;;;;;;15.18;64.89;94019.13;4945386;28;20513;-73
2023/06/01 00:42:04;;;;;;;9.57;6.10;;;;;;;15.10;65.01;94015.44;4949579;28;20031;-74
2023/06/01 00:44:29;;;;;;;10.07;5.63;;;;;;;15.17;64.84;94030.94;4941409;28;20042;-74
2023/06/01 00:46:55;;;;;;;9.77;5.53;;;;;;;15.11;64.85;94030.38;4947931;28;20034;-74
2023/06/01 00:49:20;;;;;;;8.38;6.05;;;;;;;15.06;64.74;94033.28;4948632;28;20125;-73
2023/06/01 00:51:45;;;;;;;11.60;6.65;;;;;;;14.98;65.20;94020.81;4945795;28;20150;-72
2023/06/01 00:54:11;;;;;;;11.32;6.30;;;;;;;15.06;65.22;94032.53;4942969;28;20036;-73
2023/06/01 00:56:37;;;;;;;8.55;6.55;;;;;;;15.06;65.21;94029.84;4935494;28;20126;-72
2023/06/01 00:59:03;;;;;;;7.10;5.45;;;;;;;15.06;65.04;94030.59;4946690;28;20078;-73
2023/06/01 01:01:28;;;;;;;8.93;7.18;;;;;;;14.93;65.04;94019.13;4947467;28;20107;-73
2023/06/01 01:04:00;;;;;;;10.07;6.53;;;;;;;14.99;64.85;94012.44;4949372;28;20038;-73
2023/06/01 01:07:00;;;;;;;8.75;6.00;;;;;;;14.99;65.36;94025.81;4949625;28;20031;-74
2023/06/01 01:09:49;;;;;;;11.13;7.35;;;;;;;14.84;65.55;94015.00;4941799;28;20046;-74
2023/06/01 01:12:33;;;;;;;10.48;6.28;;;;;;;14.94;65.42;94027.94;4946712;28;20050;-74
2023/06/01 01:15:12;;;;;;;12.73;6.72;;;;;;;14.74;65.27;94005.50;4946886;28;20093;-73
2023/06/01 01:17:42;;;;;;;8.25;6.00;;;;;;;14.76;65.01;94013.22;4947372;28;20134;-73
2023/06/01 01:20:29;;;;;;;7.85;6.10;;;;;;;14.69;65.24;94013.75;4947567;28;20310;-73
2023/06/01 01:23:45;;;;;;;9.55;6.60;;;;;;;14.81;64.90;94029.06;4947994;28;20165;-74
2023/06/01 01:26:19;;;;;;;7.30;5.80;;;;;;;14.71;65.22;94026.81;4942237;28;20040;-73
2023/06/01 01:28:56;;;;;;;11.55;7.10;;;;;;;14.65;65.05;94028.94;4931429;28;20038;-73
2023/06/01 01:31:26;;;;;;;8.63;6.75;;;;;;;14.52;65.39;94020.06;4947773;28;20034;-73
2023/06/01 01:33:55;;;;;;;8.35;7.07;;;;;;;14.67;65.33;94031.28;4945755;28;20031;-74
2023/06/01 01:36:22;;;;;;;10.20;6.20;;;;;;;14.67;65.81;94036.63;4944734;28;20895;-75
2023/06/01 01:38:47;;;;;;;9.20;7.43;;;;;;;14.71;65.44;94030.28;4942481;28;20452;-74
2023/06/01 01:41:13;;;;;;;7.85;5.82;;;;;;;14.61;65.20;94020.00;4931255;28;20788;-74
2023/06/01 01:43:39;;;;;;;11.95;6.35;;;;;;;14.67;65.08;94036.63;4951266;28;20031;-73
2023/06/01 01:46:13;;;;;;;10.40;7.22;;;;;;;14.49;65.62;94031.44;4944714;28;20038;-73
2023/06/01 01:49:22;;;;;;;8.93;6.45;;;;;;;14.53;65.73;94037.72;4947146;28;20125;-71
2023/06/01 01:51:50;;;;;;;11.50;7.38;;;;;;;14.49;65.81;94042.13;4910924;29;20112;-73
2023/06/01 01:54:17;;;;;;;7.88;5.78;;;;;;;14.28;65.55;93993.25;4909520;29;20035;-75
2023/06/01 01:56:44;;;;;;;8.93;6.95;;;;;;;14.53;65.40;94026.19;4928263;28;20731;-74
2023/06/01 01:59:11;;;;;;;11.07;6.65;;;;;;;14.59;65.31;94032.94;4946919;28;20035;-74
2023/06/01 02:01:40;;;;;;;8.88;6.07;;;;;;;14.50;65.38;94033.00;4944671;28;20035;-73
2023/06/01 02:04:07;;;;;;;8.45;6.20;;;;;;;14.32;65.52;93996.84;4949022;28;20335;-74
2023/06/01 02:06:32;;;;;;;9.45;6.57;;;;;;;14.53;65.60;94039.56;4944930;28;20039;-72
2023/06/01 02:08:58;;;;;;;9.00;6.40;;;;;;;14.45;65.33;94025.19;4948212;28;20043;-74
2023/06/01 02:11:24;;;;;;;8.50;6.43;;;;;;;14.43;65.53;94040.00;4939370;28;20568;-72
2023/06/01 02:13:50;;;;;;;15.68;6.55;;;;;;;14.46;65.51;94036.69;4931146;28;20077;-74
2023/06/01 02:16:15;;;;;;;9.13;6.00;;;;;;;14.37;65.45;94030.66;4946440;28;20197;-74
2023/06/01 02:18:45;;;;;;;10.77;6.18;;;;;;;14.42;65.29;94044.56;4953968;28;20138;-73
2023/06/01 02:21:14;;;;;;;10.57;6.05;;;;;;;14.36;65.58;94048.59;4944139;28;20035;-72
2023/06/01 02:23:41;;;;;;;9.85;7.03;;;;;;;14.40;65.47;94044.13;4946596;28;20035;-73
2023/06/01 02:26:08;;;;;;;8.93;6.47;;;;;;;14.34;65.53;94036.63;4944831;28;20035;-72
2023/06/01 02:28:36;;;;;;;10.20;6.60;;;;;;;14.34;65.95;94042.78;4946011;28;20496;-72
2023/06/01 02:31:02;;;;;;;10.05;6.30;;;;;;;14.36;65.47;94035.22;4945016;28;20018;-72
2023/06/01 02:33:28;;;;;;;13.48;6.28;;;;;;;14.27;65.41;94029.16;4945496;28;20094;-72
2023/06/01 02:35:53;;;;;;;7.53;6.28;;;;;;;14.35;65.25;94022.94;4946823;28;20046;-71
2023/06/01 02:38:18;;;;;;;13.00;6.72;;;;;;;14.28;65.21;94027.25;4945667;28;20134;-73
2023/06/01 02:40:45;;;;;;;9.63;6.28;;;;;;;14.36;65.40;94048.59;4947111;28;20775;-73
2023/06/01 02:43:10;;;;;;;7.40;5.97;;;;;;;14.35;65.62;94046.22;4946686;28;20079;-72
2023/06/01 02:45:36;;;;;;;12.25;5.75;;;;;;;14.18;65.71;94033.81;4959659;28;20436;-74
2023/06/01 02:48:01;;;;;;;10.35;5.78;;;;;;;14.26;65.84;94046.31;4947467;28;20475;-73
2023/06/01 02:50:26;;;;;;;11.85;7.18;;;;;;;14.24;65.65;94037.84;4944213;28;20038;-72
2023/06/01 02:52:52;;;;;;;10.90;6.72;;;;;;;14.28;65.63;94049.44;4947375;28;20075;-72
2023/06/01 02:55:17;;;;;;;10.98;6.82;;;;;;;14.31;65.53;94050.69;4947492;28;20031;-73
2023/06/01 02:57:43;;;;;;;8.38;6.57;;;;;;;14.33;65.70;94051.91;4945438;28;20506;-72
2023/06/01 03:00:15;;;;;;;10.38;6.18;;;;;;;14.28;66.10;94052.13;4950362;28;20035;-73
2023/06/01 03:02:42;;;;;;;9.77;6.95;;;;;;;14.16;66.32;94038.72;4955533;28;20452;-73
2023/06/01 03:05:08;;;;;;;9.10;6.35;;;;;;;14.23;66.22;94048.88;4950124;28;20054;-72
2023/06/01 03:07:34;;;;;;;7.05;6.20;;;;;;;14.26;65.64;94049.00;4946494;28;20096;-73
2023/06/01 03:09:59;;;;;;;8.45;6.55;;;;;;;14.27;65.33;94053.25;4950122;28;20730;-72
2023/06/01 03:12:25;;;;;;;8.38;6.13;;;;;;;14.16;65.63;94044.06;4949243;28;20059;-73
2023/06/01 03:14:50;;;;;;;12.68;6.90;;;;;;;14.16;65.73;94041.38;4946565;28;20035;-72
2023/06/01 03:17:15;;;;;;;9.70;6.40;;;;;;;14.22;66.02;94045.44;4936509;28;20113;-73
2023/06/01 03:19:41;;;;;;;12.07;6.40;;;;;;;14.11;66.37;94037.03;4947547;28;20493;-73
2023/06/01 03:22:07;;;;;;;10.27;6.53;;;;;;;14.09;66.41;94027.75;4949384;28;20089;-73
2023/06/01 03:24:34;;;;;;;7.85;6.05;;;;;;;14.27;65.95;94063.16;4958674;28;20040;-71
2023/06/01 03:27:00;;;;;;;8.90;6.22;;;;;;;14.19;66.14;94056.78;4947020;28;20043;-73
2023/06/01 03:29:26;;;;;;;10.77;7.05;;;;;;;14.21;66.36;94062.59;4949144;28;20043;-73
2023/06/01 03:31:51;;;;;;;10.20;6.88;;;;;;;14.22;66.29;94058.81;4947439;28;20059;-72
2023/06/01 03:34:17;;;;;;;9.98;6.95;;;;;;;14.14;66.65;94057.75;4949824;28;20038;-72
2023/06/01 03:36:47;;;;;;;12.07;6.60;;;;;;;14.16;66.96;94049.41;4948807;28;20990;-72
2023/06/01 03:39:15;;;;;;;7.85;6.18;;;;;;;14.21;67.11;94057.22;4948696;28;20310;-73
2023/06/01 03:41:42;;;;;;;11.15;6.55;;;;;;;14.25;67.31;94066.16;4948647;28;20583;-71
2023/06/01 03:44:07;;;;;;;9.10;6.68;;;;;;;14.17;67.62;94045.63;4947284;28;20428;-72
2023/06/01 03:46:33;;;;;;;9.60;6.65;;;;;;;14.23;67.92;94048.88;4945642;28;20039;-73
2023/06/01 03:48:58;;;;;;;7.43;6.60;;;;;;;14.34;68.18;94058.81;4950067;28;20035;-74
2023/06/01 03:51:24;;;;;;;9.20;6.93;;;;;;;14.21;68.15;94041.19;4946381;28;20544;-72
2023/06/01 03:53:49;;;;;;;10.98;7.28;;;;;;;14.39;68.23;94055.16;4961626;28;20039;-73
2023/06/01 03:56:15;;;;;;;9.25;7.38;;;;;;;14.33;68.51;94051.13;4950723;28;20035;-73
2023/06/01 03:58:40;;;;;;;15.27;9.18;;;;;;;14.33;69.10;94065.28;4950202;28;22119;-72
2023/06/01 04:01:06;;;;;;;10.50;8.65;;;;;;;14.38;69.40;94061.63;4947127;28;20081;-73
2023/06/01 04:03:32;;;;;;;14.18;9.27;;;;;;;14.36;69.69;94064.63;4949273;28;20039;-72
2023/06/01 04:06:01;;;;;;;12.88;9.85;;;;;;;14.55;69.18;94067.63;4947608;28;21056;-73
2023/06/01 04:08:27;;;;;;;15.73;10.07;;;;;;;14.52;69.80;94072.84;4943074;28;20203;-74
2023/06/01 04:10:52;;;;;;;11.75;8.88;;;;;;;14.57;69.29;94077.97;4933369;28;20345;-74
2023/06/01 04:13:18;;;;;;;12.02;8.90;;;;;;;14.76;68.40;94067.56;4920593;28;20510;-73
2023/06/01 04:15:47;;;;;;;12.48;9.07;;;;;;;14.56;68.36;94038.97;4938125;28;20031;-74
2023/06/01 04:18:12;;;;;;;15.38;8.48;;;;;;;14.65;68.96;94065.63;4939715;28;20027;-73
2023/06/01 04:20:37;;;;;;;11.07;9.38;;;;;;;14.73;69.32;94062.06;4938689;28;20381;-72
2023/06/01 04:23:03;;;;;;;10.30;7.85;;;;;;;14.79;69.50;94058.84;4941535;28;20121;-73
2023/06/01 04:25:30;;;;;;;11.23;9.30;;;;;;;14.85;70.17;94059.41;4940132;28;20037;-72
2023/06/01 04:27:55;;;;;;;11.57;9.10;;;;;;;15.00;70.36;94058.75;4956859;28;20121;-72
2023/06/01 04:30:22;;;;;;;14.25;9.70;;;;;;;14.91;70.64;94047.38;4938623;28;20035;-72
2023/06/01 04:32:48;;;;;;;17.13;10.35;;;;;;;14.72;71.55;94044.44;4935720;28;20612;-73
2023/06/01 04:35:14;;;;;;;20.23;10.00;;;;;;;14.89;70.80;94044.22;4940373;28;20039;-73
2023/06/01 04:37:41;;;;;;;16.48;12.00;;;;;;;15.15;70.31;94070.69;4937320;28;20510;-72
2023/06/01 04:40:09;;;;;;;23.73;10.88;;;;;;;14.87;70.03;94068.66;4954106;28;20016;-72
2023/06/01 04:42:42;;;;;;;16.55;9.90;;;;;;;15.00;69.75;94077.50;4938614;28;20143;-73
2023/06/01 04:45:10;;;;;;;18.98;9.88;;;;;;;15.22;68.97;94087.75;4940145;28;20482;-73
2023/06/01 04:47:44;;;;;;;18.05;11.07;;;;;;;15.31;69.34;94083.06;4938393;28;21029;-73
2023/06/01 04:50:11;;;;;;;21.83;10.30;;;;;;;15.26;69.89;94080.63;4939295;28;20445;-74
2023/06/01 04:52:38;;;;;;;30.83;12.40;;;;;;;15.38;69.82;94077.16;4938088;28;20299;-73
2023/06/01 04:55:04;;;;;;;15.68;10.63;;;;;;;15.38;68.37;94061.88;4935996;28;20118;-72
2023/06/01 04:57:30;;;;;;;18.77;11.68;;;;;;;15.51;69.06;94080.63;4941017;28;20046;-73
2023/06/01 04:59:56;;;;;;;21.70;10.57;;;;;;;15.48;69.16;94092.03;4939676;28;20042;-73
2023/06/01 05:02:24;;;;;;;19.38;11.52;;;;;;;15.46;68.77;94073.59;4942449;28;20514;-72
2023/06/01 05:04:50;;;;;;;15.55;10.73;;;;;;;15.15;68.53;94050.06;4945662;28;20043;-73
2023/06/01 05:07:15;;;;;;;19.15;10.50;;;;;;;15.61;67.99;94086.31;4948866;28;20042;-71
2023/06/01 05:09:41;;;;;;;18.73;11.57;;;;;;;15.29;68.81;94085.31;4945708;28;20587;-73
2023/06/01 05:12:07;;;;;;;21.45;11.55;;;;;;;15.15;68.88;94090.22;4945555;28;20073;-72
2023/06/01 05:14:32;;;;;;;15.98;11.68;;;;;;;15.35;68.92;94080.53;4944813;28;20065;-73
2023/06/01 05:16:58;;;;;;;14.98;11.02;;;;;;;15.40;68.44;94078.38;4942614;28;20047;-72
2023/06/01 05:19:23;;;;;;;21.92;12.38;;;;;;;15.46;68.63;94074.38;4942921;28;20027;-72
2023/06/01 05:21:48;;;;;;;19.98;11.10;;;;;;;15.25;70.82;94081.75;4944746;28;20046;-74
2023/06/01 05:24:14;;;;;;;15.25;11.30;;;;;;;15.22;71.73;94093.13;4941333;28;20058;-73
2023/06/01 05:26:40;;;;;;;20.50;12.05;;;;;;;15.46;70.64;94078.97;4948836;28;20059;-73
2023/06/01 05:29:05;;;;;;;17.42;13.13;;;;;;;15.69;69.66;94084.63;4950332;28;20081;-73
2023/06/01 05:31:31;;;;;;;19.13;13.10;;;;;;;15.30;71.13;94091.47;4951266;28;20029;-72
2023/06/01 05:33:56;;;;;;;19.25;12.43;;;;;;;14.88;72.68;94083.63;4950317;28;20086;-73
2023/06/01 05:36:22;;;;;;;19.35;14.05;;;;;;;14.71;73.72;94077.69;4968179;28;20536;-73
2023/06/01 05:38:47;;;;;;;19.25;12.90;;;;;;;14.84;73.99;94079.25;4954681;28;20045;-72
2023/06/01 05:41:13;;;;;;;22.70;14.13;;;;;;;15.07;74.11;94091.09;4945836;28;20526;-73
2023/06/01 05:43:38;;;;;;;18.50;15.80;;;;;;;15.11;73.84;94089.31;4935464;28;20030;-73
2023/06/01 05:46:04;;;;;;;18.83;13.13;;;;;;;15.39;72.34;94074.16;4949368;28;20051;-72
2023/06/01 05:48:30;;;;;;;17.77;13.52;;;;;;;15.61;70.24;94074.81;4946907;28;20039;-73
2023/06/01 05:50:55;;;;;;;15.88;12.48;;;;;;;16.05;68.18;94078.38;4950458;28;20388;-73
2023/06/01 05:53:24;;;;;;;18.80;12.98;;;;;;;16.04;67.60;94076.81;4956850;28;20039;-73
2023/06/01 05:55:51;;;;;;;19.77;13.10;;;;;;;15.95;68.52;94071.59;4950794;28;20564;-74
2023/06/01 05:58:17;;;;;;;27.08;15.10;;;;;;;15.79;68.61;94078.81;4957299;28;20026;-73
2023/06/01 06:00:42;;;;;;;21.00;14.23;;;;;;;16.02;70.15;94076.38;4952932;28;20027;-74
2023/06/01 06:03:08;;;;;;;17.45;12.90;;;;;;;16.17;69.48;94052.31;4952541;28;20039;-73
2023/06/01 06:05:33;;;;;;;15.70;13.18;;;;;;;16.26;69.45;94074.41;4948012;28;20071;-72
2023/06/01 06:07:58;;;;;;;17.45;12.55;;;;;;;16.49;68.41;94081.91;4943782;28;20399;-73
2023/06/01 06:10:24;;;;;;;16.55;14.38;;;;;;;16.60;68.72;94083.00;4929305;28;20031;-75
2023/06/01 06:12:50;;;;;;;24.65;14.20;;;;;;;16.53;68.55;94074.72;4948266;28;20142;-72
2023/06/01 06:15:16;;;;;;;17.05;13.23;;;;;;;16.20;69.48;94080.34;4950543;28;20039;-74
2023/06/01 06:17:42;;;;;;;17.80;14.05;;;;;;;16.54;69.24;94089.72;4947767;28;20759;-74
2023/06/01 06:20:08;;;;;;;19.33;14.20;;;;;;;16.64;68.43;94083.84;4950964;28;20039;-73
2023/06/01 06:22:34;;;;;;;19.30;14.20;;;;;;;16.70;66.78;94094.00;4948688;28;20464;-73
2023/06/01 06:25:00;;;;;;;19.67;14.15;;;;;;;16.99;65.95;94084.75;4950134;28;20975;-73
2023/06/01 06:27:26;;;;;;;16.73;14.48;;;;;;;17.27;66.09;94083.91;4951599;28;20126;-72
2023/06/01 06:29:51;;;;;;;20.92;14.85;;;;;;;17.04;65.10;94084.50;4949223;28;20137;-74
2023/06/01 06:32:19;;;;;;;20.13;14.85;;;;;;;17.00;66.75;94070.22;4947831;28;20039;-73
2023/06/01 06:34:45;;;;;;;22.50;13.52;;;;;;;17.34;66.23;94097.53;4947878;28;21929;-74
2023/06/01 06:37:11;;;;;;;20.25;15.45;;;;;;;17.12;64.47;94088.13;4948784;28;20031;-72
2023/06/01 06:39:37;;;;;;;22.15;16.70;;;;;;;17.44;64.17;94094.31;4946047;28;20670;-73
2023/06/01 06:42:03;;;;;;;21.80;15.15;;;;;;;17.55;64.64;94089.97;4947499;28;20493;-73
2023/06/01 06:44:29;;;;;;;24.40;16.25;;;;;;;17.51;65.60;94081.00;4944179;28;20066;-73
2023/06/01 08:27:32;;;;;;;23.05;16.25;;;;;;;18.94;62.16;94047.75;4970270;28;20142;-76
2023/06/01 08:29:58;;;;;;;22.00;16.30;;;;;;;18.79;61.95;94044.03;4978381;28;20105;-76
2023/06/01 08:32:24;;;;;;;21.40;16.73;;;;;;;18.59;62.00;94029.00;4976408;28;20129;-76
2023/06/01 08:34:49;;;;;;;22.17;15.63;;;;;;;19.04;60.63;94015.56;4980762;28;20050;-76
2023/06/01 08:37:15;;;;;;;21.23;16.42;;;;;;;19.05;61.04;94019.84;4980638;28;20042;-76
2023/06/01 08:39:41;;;;;;;22.63;16.08;;;;;;;19.19;60.90;94030.84;4980322;28;20040;-75
2023/06/01 08:42:27;;;;;;;23.88;17.45;;;;;;;19.12;61.36;94021.84;4976167;28;20094;-76
2023/06/01 08:44:55;;;;;;;19.83;15.05;;;;;;;19.25;61.60;94034.00;4975217;28;20637;-76
2023/06/01 08:47:24;;;;;;;26.20;16.95;;;;;;;19.06;60.10;94039.47;4978157;28;20512;-76
2023/06/01 08:49:50;;;;;;;20.67;16.08;;;;;;;19.26;61.72;94030.94;4974790;28;20049;-74
2023/06/01 08:52:20;;;;;;;22.77;16.05;;;;;;;19.32;58.42;94020.63;4973734;28;20050;-76
2023/06/01 08:54:46;;;;;;;21.83;16.02;;;;;;;19.54;58.90;94014.44;4980647;28;20050;-75
2023/06/01 08:57:13;;;;;;;20.92;15.07;;;;;;;19.54;59.50;94013.66;4974709;28;20040;-75
2023/06/01 08:59:39;;;;;;;28.73;15.70;;;;;;;19.64;59.42;94018.41;4980981;28;20038;-76
2023/06/01 09:02:05;;;;;;;19.77;15.93;;;;;;;19.81;56.91;94011.69;4977632;28;20042;-77
2023/06/01 09:04:33;;;;;;;23.10;15.05;;;;;;;19.89;56.67;94003.31;4977416;28;20073;-77
2023/06/01 09:06:59;;;;;;;19.42;15.10;;;;;;;19.91;56.83;93975.94;4974618;28;20032;-75
2023/06/01 09:09:24;;;;;;;20.73;14.30;;;;;;;19.95;55.00;94014.56;4973291;28;20555;-75
2023/06/01 09:12:23;;;;;;;19.75;13.45;;;;;;;19.44;55.17;93985.34;4976609;28;20348;-76
2023/06/01 09:14:50;;;;;;;19.92;13.73;;;;;;;19.57;55.04;94008.28;4965803;28;20042;-75
2023/06/01 09:17:23;;;;;;;16.75;12.45;;;;;;;19.58;57.69;94009.84;4973843;28;20042;-76
2023/06/01 09:19:55;;;;;;;21.92;13.32;;;;;;;19.82;56.36;93995.13;4970312;28;20068;-76
2023/06/01 09:22:20;;;;;;;18.55;12.27;;;;;;;20.00;53.96;94003.44;4968799;28;20033;-76
2023/06/01 09:24:59;;;;;;;23.08;14.48;;;;;;;19.94;52.87;93991.44;4969984;28;20234;-76
2023/06/01 09:27:25;;;;;;;19.42;12.20;;;;;;;20.34;53.55;94005.00;4968332;28;20049;-75
2023/06/01 09:29:56;;;;;;;18.83;14.93;;;;;;;20.46;52.93;94004.78;4971322;28;20627;-75
2023/06/01 09:32:22;;;;;;;18.95;12.90;;;;;;;20.54;52.29;94006.38;4986675;28;20035;-76
2023/06/01 09:34:49;;;;;;;16.85;10.70;;;;;;;20.54;51.76;94005.59;4986906;28;20019;-75
2023/06/01 09:37:15;;;;;;;13.15;9.68;;;;;;;20.53;51.73;93994.00;4973141;28;20033;-76
2023/06/01 09:39:40;;;;;;;14.05;10.43;;;;;;;20.50;52.28;93992.06;4965158;28;20460;-77
2023/06/01 09:42:06;;;;;;;15.27;10.73;;;;;;;20.49;52.18;93995.91;4964881;28;20653;-75
2023/06/01 09:44:32;;;;;;;13.75;11.27;;;;;;;20.54;52.20;93990.16;4965124;28;20038;-75
2023/06/01 09:47:12;;;;;;;14.52;10.38;;;;;;;20.57;52.19;93984.03;4964344;28;20076;-76
2023/06/01 09:49:43;;;;;;;6.50;5.25;;;;;;;20.55;49.59;93978.22;4963618;28;20717;-76
2023/06/01 09:52:11;;;;;;;7.78;5.07;;;;;;;20.65;46.21;93992.19;4969078;28;20127;-75
2023/06/01 09:54:39;;;;;;;8.05;4.13;;;;;;;20.46;47.14;93982.38;4966294;28;20034;-75
2023/06/01 09:57:06;;;;;;;10.68;5.20;;;;;;;20.49;46.95;93993.22;4965299;28;20042;-76
2023/06/01 09:59:45;;;;;;;6.60;4.78;;;;;;;20.40;46.79;93973.03;4966293;28;20556;-76
2023/06/01 10:02:22;;;;;;;5.75;4.60;;;;;;;20.38;46.54;93970.75;4964752;28;20030;-76
2023/06/01 10:04:50;;;;;;;7.38;4.38;;;;;;;20.43;46.35;93975.03;4972410;28;20045;-76
2023/06/01 10:07:17;;;;;;;12.45;5.38;;;;;;;20.20;47.77;93974.38;4965456;28;20034;-75
2023/06/01 10:09:45;;;;;;;6.70;4.50;;;;;;;20.18;46.52;93972.06;4966339;28;20042;-77
2023/06/01 10:12:11;;;;;;;4.97;4.07;;;;;;;20.07;46.04;93957.63;4963411;28;20058;-76
2023/06/01 10:14:38;;;;;;;8.30;4.95;;;;;;;19.98;47.02;93957.16;4966560;28;20139;-75
2023/06/01 10:17:04;;;;;;;7.78;5.20;;;;;;;19.80;47.12;93956.94;4962439;28;20030;-76
2023/06/01 10:19:30;;;;;;;6.25;4.47;;;;;;;19.55;48.48;93966.66;4966710;28;20491;-76
2023/06/01 10:21:59;;;;;;;9.23;4.60;;;;;;;19.19;48.44;93944.56;4956986;28;20038;-76
2023/06/01 10:24:26;;;;;;;5.10;4.00;;;;;;;19.23;47.66;93963.47;4967113;28;20718;-76
2023/06/01 10:26:52;;;;;;;4.97;4.13;;;;;;;19.07;47.72;93973.63;4978338;28;20656;-76
2023/06/01 10:29:18;;;;;;;5.88;4.00;;;;;;;18.94;48.63;93964.19;4967673;28;20046;-75
2023/06/01 10:31:44;;;;;;;7.47;4.38;;;;;;;18.92;49.04;93967.25;4964185;28;20121;-75
2023/06/01 10:34:11;;;;;;;6.80;4.35;;;;;;;18.75;50.38;93968.53;4967846;28;20026;-75
2023/06/01 10:36:52;;;;;;;7.05;4.47;;;;;;;18.63;51.88;93962.50;4966149;28;20092;-75
2023/06/01 10:39:25;;;;;;;8.48;4.47;;;;;;;18.34;52.42;93931.63;4966130;28;20035;-76
2023/06/01 10:41:51;;;;;;;7.95;4.80;;;;;;;18.14;53.10;93968.59;4964848;28;20136;-76
2023/06/01 10:44:41;;;;;;;6.25;5.13;;;;;;;18.20;54.70;93969.84;4974477;28;20056;-75
2023/06/01 10:47:12;;;;;;;6.20;5.07;;;;;;;18.27;54.60;93958.44;4964276;28;20041;-75
2023/06/01 10:49:47;;;;;;;6.40;4.93;;;;;;;18.14;55.02;93955.13;4965006;28;20117;-75
2023/06/01 10:52:27;;;;;;;6.50;4.70;;;;;;;18.08;56.22;93955.78;4964681;28;20030;-76
2023/06/01 10:54:53;;;;;;;7.03;5.28;;;;;;;18.10;58.76;93948.13;4964823;28;20153;-76
2023/06/01 10:57:25;;;;;;;5.28;4.78;;;;;;;18.34;59.01;93950.47;4964851;28;20038;-75
2023/06/01 11:00:13;;;;;;;8.63;4.95;;;;;;;18.40;59.18;93949.06;4965314;28;20599;-76
2023/06/01 11:02:57;;;;;;;7.05;4.32;;;;;;;18.29;59.50;93934.63;4964691;28;20379;-75
2023/06/01 11:05:48;;;;;;;4.67;4.17;;;;;;;18.45;58.30;93935.28;4962021;28;20602;-77
2023/06/01 11:08:16;;;;;;;8.00;4.70;;;;;;;18.51;58.32;93928.47;4962440;28;20042;-76
2023/06/01 11:10:54;;;;;;;6.75;4.53;;;;;;;18.47;58.09;93922.25;4959721;28;20037;-76
2023/06/01 11:13:29;;;;;;;5.53;4.57;;;;;;;18.46;57.43;93912.63;4956676;28;20472;-76
2023/06/01 11:16:04;;;;;;;5.95;3.78;;;;;;;18.69;56.05;93931.44;4962682;28;20055;-75
2023/06/01 11:19:00;;;;;;;4.60;3.80;;;;;;;18.61;55.21;93935.16;4972452;28;20046;-76
2023/06/01 11:21:28;;;;;;;5.82;4.57;;;;;;;18.45;54.22;93916.44;4966057;28;20042;-76
2023/06/01 11:23:56;;;;;;;8.45;5.20;;;;;;;18.64;53.65;93920.97;4982581;28;20069;-76
2023/06/01 11:26:34;;;;;;;5.28;4.22;;;;;;;18.47;53.91;93908.78;4970949;28;20046;-76
2023/06/01 11:29:17;;;;;;;9.63;4.03;;;;;;;18.36;51.04;93907.84;4968183;28;20042;-74
2023/06/01 11:32:05;;;;;;;7.50;4.75;;;;;;;18.21;51.30;93895.25;4969551;28;20312;-76
2023/06/01 11:34:37;;;;;;;4.38;3.85;;;;;;;18.19;51.65;93905.59;4967631;28;20026;-75
2023/06/01 11:37:03;;;;;;;8.50;3.85;;;;;;;18.04;51.14;93891.91;4967941;28;20026;-76
2023/06/01 11:39:29;;;;;;;5.03;3.92;;;;;;;18.22;49.98;93905.69;4979728;28;20038;-75
2023/06/01 11:42:12;;;;;;;5.00;3.25;;;;;;;18.24;51.55;93916.06;4967093;28;20046;-76
2023/06/01 11:44:39;;;;;;;5.60;4.43;;;;;;;18.26;52.52;93914.59;4964310;28;20371;-75
2023/06/01 11:47:07;;;;;;;4.43;3.25;;;;;;;18.31;52.80;93932.38;4968510;28;20725;-75
2023/06/01 11:49:50;;;;;;;6.43;3.08;;;;;;;18.37;53.51;93934.41;4968326;28;20775;-75
2023/06/01 11:52:20;;;;;;;5.65;3.17;;;;;;;18.43;54.19;93930.25;4966716;28;20175;-75
2023/06/01 11:54:46;;;;;;;4.38;3.08;;;;;;;18.25;53.02;93912.25;4966746;28;20181;-76
2023/06/01 11:57:12;;;;;;;3.45;3.08;;;;;;;18.43;53.99;93951.06;4967608;28;20052;-76
2023/06/01 11:59:41;;;;;;;5.05;3.65;;;;;;;18.20;55.97;93969.06;4966832;28;20357;-76
2023/06/01 12:02:21;;;;;;;6.75;4.00;;;;;;;17.80;60.39;93958.66;4962501;28;20080;-76
2023/06/01 12:05:15;;;;;;;6.03;4.22;;;;;;;16.94;63.78;93980.25;4964515;28;20045;-76
2023/06/01 12:07:44;;;;;;;6.57;4.88;;;;;;;17.20;62.29;93965.50;4956555;28;20038;-76
2023/06/01 12:10:16;;;;;;;7.10;4.30;;;;;;;17.58;61.14;93968.25;4965615;28;20891;-76
2023/06/01 12:12:45;;;;;;;5.50;4.47;;;;;;;17.75;60.95;93964.34;4968346;28;20057;-77
2023/06/01 12:15:12;;;;;;;7.45;4.57;;;;;;;17.80;60.61;93964.06;4965776;28;20041;-76
2023/06/01 12:17:51;;;;;;;5.93;4.45;;;;;;;17.79;61.00;93949.06;4968159;28;20045;-76
2023/06/01 12:20:34;;;;;;;4.80;3.63;;;;;;;17.68;60.24;93943.47;4975275;28;20038;-76
2023/06/01 12:23:03;;;;;;;7.38;4.68;;;;;;;17.49;62.19;93920.06;4966111;28;20450;-77
2023/06/01 12:25:30;;;;;;;5.03;3.83;;;;;;;17.82;62.55;93929.50;4966387;28;20041;-76
2023/06/01 12:28:08;;;;;;;4.82;4.30;;;;;;;17.80;62.89;93916.41;4965956;28;20073;-76
2023/06/01 12:30:34;;;;;;;9.98;3.80;;;;;;;17.92;61.95;93904.72;4963773;28;20568;-76
2023/06/01 12:33:00;;;;;;;5.15;4.13;;;;;;;17.98;61.44;93898.72;4967879;28;20233;-76
2023/06/01 12:35:25;;;;;;;7.03;4.00;;;;;;;18.10;61.18;93888.91;4965295;28;20045;-76
2023/06/01 12:38:04;;;;;;;5.68;4.00;;;;;;;18.10;61.60;93878.16;4965246;28;20068;-76
2023/06/01 12:40:30;;;;;;;5.32;3.88;;;;;;;18.23;62.95;93883.03;4964812;28;20565;-76
2023/06/01 12:42:55;;;;;;;6.15;4.35;;;;;;;18.28;62.49;93885.41;4965166;28;20034;-76
2023/06/01 12:45:21;;;;;;;8.93;3.80;;;;;;;18.34;62.33;93880.47;4967307;28;20042;-76
2023/06/01 12:47:46;;;;;;;5.32;4.00;;;;;;;18.32;63.19;93877.38;4965791;28;20034;-76
2023/06/01 12:50:13;;;;;;;4.70;4.00;;;;;;;18.30;62.70;93871.56;4968579;28;20385;-76
2023/06/01 12:52:40;;;;;;;5.18;4.13;;;;;;;18.41;64.37;93872.53;4965333;28;20121;-76
2023/06/01 12:55:06;;;;;;;4.55;3.47;;;;;;;18.27;64.31;93851.53;4965654;28;20023;-76
2023/06/01 12:57:32;;;;;;;4.28;3.45;;;;;;;18.48;64.50;93867.25;4966890;28;20577;-76
2023/06/01 12:59:59;;;;;;;4.63;3.83;;;;;;;18.62;63.06;93855.94;4964582;28;20038;-75
2023/06/01 13:02:25;;;;;;;4.72;3.83;;;;;;;18.75;62.76;93855.38;4958598;28;20193;-76
2023/06/01 13:04:53;;;;;;;6.78;4.50;;;;;;;18.93;60.18;93850.22;4977219;28;20050;-76
2023/06/01 13:07:18;;;;;;;4.30;3.90;;;;;;;19.02;59.67;93836.50;4965659;28;20430;-76
2023/06/01 13:09:44;;;;;;;6.07;3.75;;;;;;;19.00;59.77;93823.38;4966361;28;20081;-76
2023/06/01 13:12:10;;;;;;;3.50;2.80;;;;;;;18.89;60.94;93822.47;4962967;28;20031;-76
2023/06/01 13:14:36;;;;;;;5.43;2.92;;;;;;;19.03;60.50;93835.34;4966916;28;20396;-77